createdAt,value
2019-05-22T00:02:01.377Z,48.47
2019-05-22T00:04:39.112Z,52.40
2019-05-22T00:07:11.605Z,54.30
2019-05-22T00:09:42.309Z,59.97
2019-05-22T00:12:20.723Z,45.83
2019-05-22T00:14:52.801Z,45.23
2019-05-22T00:17:30.433Z,44.03
2019-05-22T00:20:01.735Z,45.50
2019-05-22T00:22:33.577Z,53.63
2019-05-22T00:25:05.084Z,46.83
2019-05-22T00:27:35.945Z,44.57
2019-05-22T00:30:06.364Z,39.70
2019-05-22T00:32:37.049Z,41.20
2019-05-22T00:35:08.943Z,45.50
2019-05-22T00:37:38.527Z,48.13
2019-05-22T00:40:09.592Z,44.93
2019-05-22T00:42:45.163Z,42.53
2019-05-22T00:45:15.322Z,51.73
2019-05-22T00:47:44.665Z,40.67
2019-05-22T00:50:20.901Z,51.43
2019-05-22T00:53:00.871Z,45.50
2019-05-22T00:55:50.419Z,43.17
2019-05-22T00:58:26.873Z,40.47
2019-05-22T01:01:12.858Z,50.47
2019-05-22T01:03:43.573Z,45.70
2019-05-22T01:06:15.457Z,52.83
2019-05-22T01:08:48.320Z,45.17
2019-05-22T01:11:21.325Z,54.83
2019-05-22T01:13:51.418Z,46.90
2019-05-22T01:16:21.121Z,47.43
2019-05-22T01:18:52.251Z,43.13
2019-05-22T01:21:24.556Z,48.33
2019-05-22T01:23:56.201Z,48.17
2019-05-22T01:26:26.067Z,48.80
2019-05-22T01:28:55.923Z,54.23
2019-05-22T01:31:37.160Z,47.97
2019-05-22T01:34:12.417Z,60.77
2019-05-22T01:36:54.231Z,51.20
2019-05-22T01:39:44.333Z,54.73
2019-05-22T01:42:17.844Z,54.07
2019-05-22T01:45:01.630Z,47.80
2019-05-22T01:47:32.543Z,50.50
2019-05-22T01:50:03.235Z,54.93
2019-05-22T01:52:33.740Z,52.13
2019-05-22T01:55:04.695Z,51.23
2019-05-22T01:57:34.803Z,46.60
2019-05-22T02:00:06.395Z,47.17
2019-05-22T02:02:35.889Z,55.33
2019-05-22T02:05:08.060Z,58.67
2019-05-22T02:07:37.488Z,53.10
2019-05-22T02:10:08.571Z,52.57
2019-05-22T02:12:50.807Z,54.10
2019-05-22T02:15:22.012Z,68.00
2019-05-22T02:17:52.219Z,61.67
2019-05-22T02:20:22.511Z,55.57
2019-05-22T02:22:52.009Z,56.57
2019-05-22T02:25:21.844Z,54.93
2019-05-22T02:27:51.629Z,55.97
2019-05-22T02:30:24.265Z,57.10
2019-05-22T02:32:55.396Z,55.70
2019-05-22T02:35:25.366Z,47.03
2019-05-22T02:37:57.280Z,52.13
2019-05-22T02:40:31.991Z,64.30
2019-05-22T02:43:02.351Z,59.10
2019-05-22T02:45:32.224Z,52.73
2019-05-22T02:48:03.811Z,56.43
2019-05-22T02:50:37.108Z,61.60
2019-05-22T02:53:09.559Z,54.07
2019-05-22T02:55:39.710Z,56.60
2019-05-22T02:58:11.092Z,49.40
2019-05-22T03:00:58.254Z,53.83
2019-05-22T03:03:28.939Z,48.97
2019-05-22T03:05:59.906Z,53.03
2019-05-22T03:08:54.115Z,52.17
2019-05-22T03:11:26.084Z,52.40
2019-05-22T03:13:59.722Z,49.53
2019-05-22T03:16:36.129Z,54.67
2019-05-22T03:19:08.774Z,51.07
2019-05-22T03:21:37.855Z,53.47
2019-05-22T03:24:07.855Z,50.37
2019-05-22T03:26:48.028Z,48.53
2019-05-22T03:29:20.348Z,46.93
2019-05-22T03:31:50.237Z,49.10
2019-05-22T03:34:20.509Z,51.40
2019-05-22T03:36:49.997Z,47.80
2019-05-22T03:39:19.240Z,55.03
2019-05-22T03:41:48.670Z,55.10
2019-05-22T03:44:19.551Z,49.10
2019-05-22T03:46:49.647Z,57.03
2019-05-22T03:49:30.017Z,53.60
2019-05-22T03:51:52.494Z,46.37
2019-05-22T03:54:21.767Z,54.27
2019-05-22T03:56:51.976Z,53.73
2019-05-22T03:59:21.956Z,53.50
2019-05-22T04:01:51.194Z,53.37
2019-05-22T04:04:41.061Z,53.47
2019-05-22T04:07:21.392Z,49.17
2019-05-22T04:09:56.212Z,51.03
2019-05-22T04:12:25.437Z,49.77
2019-05-22T04:14:55.700Z,51.30
2019-05-22T04:17:27.382Z,50.53
2019-05-22T04:19:56.831Z,45.40
2019-05-22T04:22:26.315Z,46.00
2019-05-22T04:24:55.827Z,49.90
2019-05-22T04:27:25.612Z,44.07
2019-05-22T04:29:56.899Z,52.20
2019-05-22T04:32:31.751Z,38.87
2019-05-22T04:35:01.317Z,44.33
2019-05-22T04:37:32.977Z,44.87
2019-05-22T04:40:55.660Z,34.67
2019-05-22T04:43:26.641Z,42.77
2019-05-22T04:45:57.126Z,39.20
2019-05-22T04:48:29.290Z,36.87
2019-05-22T04:51:02.144Z,36.03
2019-05-22T04:53:31.373Z,44.60
2019-05-22T04:56:00.859Z,42.50
2019-05-22T04:58:34.460Z,39.77
2019-05-22T05:01:04.113Z,36.83
2019-05-22T05:03:33.932Z,39.77
2019-05-22T05:06:06.691Z,39.93
2019-05-22T05:08:35.356Z,38.40
2019-05-22T05:11:05.864Z,35.07
2019-05-22T05:13:35.205Z,48.00
2019-05-22T05:16:04.880Z,39.87
2019-05-22T05:18:35.322Z,44.40
2019-05-22T05:21:05.231Z,42.90
2019-05-22T05:23:34.567Z,42.80
2019-05-22T05:26:03.789Z,44.33
2019-05-22T05:28:33.484Z,39.07
2019-05-22T05:31:02.805Z,39.77
2019-05-22T05:33:37.353Z,35.57
2019-05-22T05:36:07.245Z,35.43
2019-05-22T05:38:38.951Z,37.50
2019-05-22T05:41:08.675Z,36.50
2019-05-22T05:43:37.903Z,32.57
2019-05-22T05:46:07.806Z,38.07
2019-05-22T05:48:37.158Z,36.50
2019-05-22T05:51:42.964Z,37.03
2019-05-22T05:54:23.324Z,28.60
2019-05-22T05:56:54.016Z,31.57
2019-05-22T05:59:26.418Z,36.73
2019-05-22T06:01:56.491Z,32.03
2019-05-22T06:04:36.509Z,33.43
2019-05-22T06:07:27.815Z,36.07
2019-05-22T06:10:42.626Z,37.37
2019-05-22T06:13:12.879Z,31.13
2019-05-22T06:16:29.215Z,26.77
2019-05-22T06:18:58.520Z,30.57
2019-05-22T06:21:27.746Z,26.87
2019-05-22T06:24:25.247Z,31.33
2019-05-22T06:27:18.999Z,30.23
2019-05-22T06:30:02.728Z,28.30
2019-05-22T06:33:15.415Z,24.07
2019-05-22T06:35:46.381Z,23.90
2019-05-22T06:38:57.455Z,27.83
2019-05-22T06:41:31.501Z,28.80
2019-05-22T06:44:42.084Z,30.53
2019-05-22T06:47:20.516Z,28.90
2019-05-22T06:49:58.620Z,28.37
2019-05-22T06:52:28.324Z,29.17
2019-05-22T06:54:58.127Z,25.40
2019-05-22T06:57:29.541Z,33.67
2019-05-22T07:00:13.089Z,22.63
2019-05-22T07:02:35.511Z,28.23
2019-05-22T07:05:06.419Z,25.33
2019-05-22T07:07:35.817Z,29.23
2019-05-22T07:10:06.998Z,23.10
2019-05-22T07:12:37.141Z,25.87
2019-05-22T07:15:50.225Z,19.93
2019-05-22T07:18:22.576Z,25.87
2019-05-22T07:20:52.136Z,25.50
2019-05-22T07:23:28.408Z,24.20
2019-05-22T07:25:59.583Z,22.47
2019-05-22T07:28:29.096Z,19.97
2019-05-22T07:30:58.718Z,21.30
2019-05-22T07:33:28.192Z,17.77
2019-05-22T07:36:09.271Z,17.63
2019-05-22T07:38:28.850Z,18.23
2019-05-22T07:40:58.452Z,18.87
2019-05-22T07:43:27.649Z,24.93
2019-05-22T07:45:57.828Z,15.67
2019-05-22T07:48:28.988Z,13.87
2019-05-22T07:50:59.577Z,19.60
2019-05-22T07:53:29.540Z,13.93
2019-05-22T07:56:00.696Z,16.00
2019-05-22T07:58:31.250Z,17.77
2019-05-22T08:01:03.510Z,16.17
2019-05-22T08:03:33.077Z,15.37
2019-05-22T08:06:02.842Z,18.17
2019-05-22T08:08:35.351Z,18.30
2019-05-22T08:11:06.201Z,18.07
2019-05-22T08:13:36.086Z,12.00
2019-05-22T08:16:06.229Z,14.30
2019-05-22T08:18:37.778Z,14.10
2019-05-22T08:21:08.007Z,16.13
2019-05-22T08:23:37.675Z,11.43
2019-05-22T08:26:08.783Z,15.83
2019-05-22T08:28:39.710Z,12.40
2019-05-22T08:31:10.794Z,11.77
2019-05-22T08:33:40.012Z,13.30
2019-05-22T08:36:09.456Z,12.90
2019-05-22T08:38:39.484Z,11.73
2019-05-22T08:41:10.997Z,13.33
2019-05-22T08:44:11.347Z,12.20
2019-05-22T08:46:13.575Z,12.77
2019-05-22T08:48:47.900Z,14.93
2019-05-22T08:51:14.337Z,10.60
2019-05-22T08:53:48.113Z,14.87
2019-05-22T08:56:15.490Z,10.37
2019-05-22T08:58:46.386Z,15.57
2019-05-22T09:01:16.299Z,15.63
2019-05-22T09:03:46.623Z,17.13
2019-05-22T09:06:15.794Z,12.77
2019-05-22T09:08:45.118Z,10.10
2019-05-22T09:11:14.388Z,9.50
2019-05-22T09:13:43.693Z,8.33
2019-05-22T09:16:14.473Z,14.57
2019-05-22T09:18:43.731Z,15.63
2019-05-22T09:21:14.011Z,15.53
2019-05-22T09:23:44.369Z,13.53
2019-05-22T09:26:14.445Z,9.40
2019-05-22T09:28:43.681Z,10.20
2019-05-22T09:31:12.978Z,14.37
2019-05-22T09:33:42.733Z,14.80
2019-05-22T09:36:12.032Z,13.03
2019-05-22T09:38:41.629Z,9.33
2019-05-22T09:41:13.535Z,8.63
2019-05-22T09:43:42.771Z,13.57
2019-05-22T09:46:11.963Z,11.93
2019-05-22T09:48:41.702Z,11.80
2019-05-22T09:51:11.227Z,7.57
2019-05-22T09:53:41.200Z,11.43
2019-05-22T09:56:10.670Z,11.23
2019-05-22T09:58:40.038Z,8.80
2019-05-22T10:01:12.130Z,8.50
2019-05-22T10:03:41.680Z,12.13
2019-05-22T10:06:11.593Z,7.37
2019-05-22T10:08:41.008Z,7.33
2019-05-22T10:11:11.057Z,9.03
2019-05-22T10:13:40.544Z,6.87
2019-05-22T10:16:10.148Z,10.07
2019-05-22T10:18:39.356Z,7.70
2019-05-22T10:21:09.017Z,8.00
2019-05-22T10:23:39.316Z,5.93
2019-05-22T10:26:09.403Z,8.20
2019-05-22T10:28:39.222Z,9.27
2019-05-22T10:31:09.563Z,8.37
2019-05-22T10:33:39.593Z,5.63
2019-05-22T10:36:08.907Z,6.63
2019-05-22T10:38:38.147Z,5.03
2019-05-22T10:41:07.515Z,5.00
2019-05-22T10:43:37.167Z,5.33
2019-05-22T10:46:08.337Z,6.80
2019-05-22T10:48:40.231Z,6.03
2019-05-22T10:51:08.489Z,5.90
2019-05-22T10:53:38.772Z,7.70
2019-05-22T10:56:08.244Z,6.13
2019-05-22T10:58:37.947Z,9.67
2019-05-22T11:01:09.108Z,5.53
2019-05-22T11:03:38.788Z,6.17
2019-05-22T11:06:08.402Z,6.13
2019-05-22T11:08:38.221Z,5.50
2019-05-22T11:11:08.352Z,5.73
2019-05-22T11:13:38.204Z,7.77
2019-05-22T11:16:08.881Z,5.00
2019-05-22T11:18:38.756Z,4.40
2019-05-22T11:21:08.799Z,5.13
2019-05-22T11:23:51.144Z,6.40
2019-05-22T11:26:08.948Z,4.83
2019-05-22T11:28:38.408Z,5.13
2019-05-22T11:31:08.333Z,5.37
2019-05-22T11:33:37.517Z,7.23
2019-05-22T11:36:07.501Z,6.77
2019-05-22T11:38:37.204Z,5.50
2019-05-22T11:41:07.916Z,4.23
2019-05-22T11:43:37.154Z,5.30
2019-05-22T11:46:06.865Z,3.93
2019-05-22T11:48:36.042Z,6.47
2019-05-22T11:51:05.772Z,8.67
2019-05-22T11:53:35.761Z,5.80
2019-05-22T11:56:05.382Z,5.20
2019-05-22T11:58:34.583Z,9.07
2019-05-22T12:01:04.398Z,10.53
2019-05-22T12:03:35.301Z,5.70
2019-05-22T12:06:05.456Z,7.93
2019-05-22T12:08:34.620Z,5.23
2019-05-22T12:11:04.854Z,6.07
2019-05-22T12:13:35.072Z,5.03
2019-05-22T12:16:05.558Z,6.80
2019-05-22T12:18:35.562Z,7.83
2019-05-22T12:21:05.684Z,3.00
2019-05-22T12:23:35.038Z,4.13
2019-05-22T12:26:05.015Z,5.50
2019-05-22T12:28:34.460Z,4.53
2019-05-22T12:31:03.835Z,4.20
2019-05-22T12:33:33.567Z,4.80
2019-05-22T12:36:03.577Z,4.40
2019-05-22T12:38:32.789Z,5.00
2019-05-22T12:41:03.095Z,5.07
2019-05-22T12:43:34.290Z,5.60
2019-05-22T12:46:03.897Z,8.77
2019-05-22T12:48:33.178Z,6.20
2019-05-22T12:51:02.496Z,11.20
2019-05-22T12:53:31.797Z,5.47
2019-05-22T12:56:01.234Z,5.67
2019-05-22T12:58:32.120Z,7.20
2019-05-22T13:01:01.607Z,5.50
2019-05-22T13:03:31.675Z,5.70
2019-05-22T13:06:01.955Z,7.80
2019-05-22T13:08:32.428Z,6.07
2019-05-22T13:11:05.268Z,4.90
2019-05-22T13:13:32.882Z,7.70
2019-05-22T13:16:02.676Z,4.00
2019-05-22T13:18:35.635Z,7.83
2019-05-22T13:21:06.134Z,7.20
2019-05-22T13:23:39.468Z,8.27
2019-05-22T13:26:09.437Z,2.40
2019-05-22T13:28:42.003Z,7.13
2019-05-22T13:31:12.143Z,7.60
2019-05-22T13:33:44.263Z,6.37
2019-05-22T13:36:14.936Z,5.87
2019-05-22T13:38:44.485Z,5.03
2019-05-22T13:41:13.991Z,4.43
2019-05-22T13:43:43.292Z,6.67
2019-05-22T13:46:13.784Z,2.87
2019-05-22T13:48:42.971Z,6.77
2019-05-22T13:51:13.851Z,5.20
2019-05-22T13:53:43.588Z,2.67
2019-05-22T13:56:13.404Z,4.90
2019-05-22T13:58:43.579Z,3.87
2019-05-22T14:01:13.100Z,3.63
2019-05-22T14:03:42.495Z,4.50
2019-05-22T14:06:11.770Z,2.23
2019-05-22T14:08:41.661Z,9.27
2019-05-22T14:11:11.781Z,4.27
2019-05-22T14:13:41.258Z,6.33
2019-05-22T14:16:10.430Z,6.67
2019-05-22T14:18:39.666Z,9.20
2019-05-22T14:21:08.865Z,2.70
2019-05-22T14:23:38.548Z,4.67
2019-05-22T14:26:07.763Z,8.00
2019-05-22T14:28:37.943Z,8.43
2019-05-22T14:31:07.303Z,2.83
2019-05-22T14:33:40.405Z,1.90
2019-05-22T14:36:09.147Z,7.47
2019-05-22T14:38:40.064Z,4.30
2019-05-22T14:41:10.292Z,2.93
2019-05-22T14:43:39.521Z,6.03
2019-05-22T14:46:08.815Z,1.70
2019-05-22T14:48:39.158Z,4.97
2019-05-22T14:51:09.184Z,4.93
2019-05-22T14:53:40.140Z,3.53
2019-05-22T14:56:11.078Z,4.83
2019-05-22T14:58:41.641Z,4.73
2019-05-22T15:01:11.755Z,10.40
2019-05-22T15:03:42.286Z,4.30
2019-05-22T15:06:11.720Z,4.97
2019-05-22T15:08:41.046Z,5.00
2019-05-22T15:11:10.568Z,7.53
2019-05-22T15:13:39.983Z,3.40
2019-05-22T15:16:09.184Z,4.47
2019-05-22T15:18:38.680Z,2.00
2019-05-22T15:21:09.798Z,4.93
2019-05-22T15:23:39.477Z,2.63
2019-05-22T15:26:09.244Z,4.30
2019-05-22T15:28:38.616Z,3.87
2019-05-22T15:31:07.827Z,4.93
2019-05-22T15:33:37.765Z,10.63
2019-05-22T15:36:10.520Z,5.30
2019-05-22T15:38:43.612Z,3.43
2019-05-22T15:41:13.501Z,4.13
2019-05-22T15:43:50.405Z,5.67
2019-05-22T15:46:17.399Z,4.70
2019-05-22T15:48:48.865Z,4.90
2019-05-22T15:51:22.156Z,4.50
2019-05-22T15:53:52.913Z,6.70
2019-05-22T15:56:27.890Z,3.47
2019-05-22T15:58:59.059Z,4.17
2019-05-22T16:01:29.951Z,5.53
2019-05-22T16:04:01.236Z,5.47
2019-05-22T16:06:32.188Z,3.63
2019-05-22T16:09:04.082Z,3.50
2019-05-22T16:11:34.249Z,4.70
2019-05-22T16:14:05.172Z,5.70
2019-05-22T16:16:36.404Z,5.07
2019-05-22T16:19:08.949Z,4.23
2019-05-22T16:21:42.209Z,4.13
2019-05-22T16:24:13.003Z,2.27
2019-05-22T16:26:42.683Z,2.67
2019-05-22T16:29:13.463Z,4.53
2019-05-22T16:31:44.298Z,4.43
2019-05-22T16:34:14.667Z,4.60
2019-05-22T16:36:47.056Z,2.93
2019-05-22T16:39:20.437Z,7.13
2019-05-22T16:41:50.601Z,5.67
2019-05-22T16:44:20.199Z,4.53
2019-05-22T16:46:49.817Z,3.87
2019-05-22T16:49:20.024Z,3.37
2019-05-22T16:51:49.875Z,4.73
2019-05-22T16:54:21.291Z,5.87
2019-05-22T16:56:52.072Z,4.17
2019-05-22T16:59:22.189Z,8.70
2019-05-22T17:01:59.625Z,11.17
2019-05-22T17:04:22.860Z,5.27
2019-05-22T17:06:52.773Z,5.47
2019-05-22T17:09:23.304Z,6.40
2019-05-22T17:11:53.278Z,7.90
2019-05-22T17:14:25.217Z,7.47
2019-05-22T17:16:55.333Z,4.30
2019-05-22T17:19:27.484Z,4.47
2019-05-22T17:21:55.784Z,4.70
2019-05-22T17:24:25.943Z,7.10
2019-05-22T17:26:56.179Z,7.40
2019-05-22T17:29:27.382Z,6.80
2019-05-22T17:31:56.659Z,7.10
2019-05-22T17:34:32.236Z,6.97
2019-05-22T17:37:06.191Z,4.70
2019-05-22T17:39:36.659Z,7.07
2019-05-22T17:42:09.079Z,4.93
2019-05-22T17:44:40.063Z,5.03
2019-05-22T17:47:11.865Z,3.20
2019-05-22T17:49:41.633Z,6.13
2019-05-22T17:52:12.617Z,7.60
2019-05-22T17:54:42.798Z,2.23
2019-05-22T17:57:13.666Z,3.83
2019-05-22T17:59:43.739Z,8.73
2019-05-22T18:02:14.760Z,2.73
2019-05-22T18:04:44.243Z,7.53
2019-05-22T18:07:13.900Z,5.90
2019-05-22T18:09:43.650Z,4.23
2019-05-22T18:12:13.257Z,5.47
2019-05-22T18:14:43.252Z,5.77
2019-05-22T18:17:13.763Z,4.60
2019-05-22T18:19:43.257Z,4.53
2019-05-22T18:22:12.887Z,6.43
2019-05-22T18:24:43.018Z,3.60
2019-05-22T18:27:12.731Z,6.77
2019-05-22T18:29:43.532Z,2.53
2019-05-22T18:32:13.699Z,7.33
2019-05-22T18:34:43.048Z,6.07
2019-05-22T18:37:12.795Z,4.10
2019-05-22T18:39:42.653Z,10.40
2019-05-22T18:42:13.682Z,7.37
2019-05-22T18:44:43.373Z,6.13
2019-05-22T18:47:13.092Z,8.40
2019-05-22T18:49:42.904Z,4.20
2019-05-22T18:52:12.198Z,7.20
2019-05-22T18:54:41.916Z,5.97
2019-05-22T18:57:11.373Z,7.67
2019-05-22T18:59:41.038Z,6.30
2019-05-22T19:02:10.799Z,5.77
2019-05-22T19:04:40.862Z,7.70
2019-05-22T19:07:10.338Z,9.07
2019-05-22T19:09:39.561Z,7.60
2019-05-22T19:12:09.262Z,3.00
2019-05-22T19:14:38.557Z,8.33
2019-05-22T19:17:08.274Z,7.00
2019-05-22T19:19:37.607Z,5.13
2019-05-22T19:22:06.823Z,4.57
2019-05-22T19:24:36.427Z,5.83
2019-05-22T19:27:05.623Z,4.60
2019-05-22T19:29:34.829Z,5.03
2019-05-22T19:32:04.227Z,5.30
2019-05-22T19:34:33.607Z,7.03
2019-05-22T19:37:03.134Z,5.30
2019-05-22T19:39:33.340Z,2.33
2019-05-22T19:42:05.648Z,4.80
2019-05-22T19:44:34.376Z,3.03
2019-05-22T19:47:05.288Z,6.60
2019-05-22T19:49:34.935Z,4.10
2019-05-22T19:52:05.040Z,6.40
2019-05-22T19:54:34.326Z,3.97
2019-05-22T19:57:04.590Z,7.93
2019-05-22T19:59:34.505Z,6.40
2019-05-22T20:02:04.881Z,7.87
2019-05-22T20:04:35.016Z,7.53
2019-05-22T20:07:07.129Z,5.50
2019-05-22T20:09:36.791Z,7.20
2019-05-22T20:12:07.398Z,4.57
2019-05-22T20:14:37.014Z,3.83
2019-05-22T20:17:06.522Z,7.10
2019-05-22T20:19:36.756Z,5.53
2019-05-22T20:22:06.561Z,8.47
2019-05-22T20:24:36.127Z,7.30
2019-05-22T20:27:09.353Z,5.80
2019-05-22T20:29:36.856Z,5.30
2019-05-22T20:32:07.779Z,5.17
2019-05-22T20:34:37.716Z,4.60
2019-05-22T20:37:07.703Z,7.07
2019-05-22T20:39:37.187Z,8.47
2019-05-22T20:42:07.759Z,5.97
2019-05-22T20:44:37.635Z,4.90
2019-05-22T20:47:07.911Z,6.43
2019-05-22T20:49:38.856Z,5.97
2019-05-22T20:52:10.896Z,6.00
2019-05-22T20:54:40.807Z,6.37
2019-05-22T20:57:11.923Z,4.83
2019-05-22T20:59:44.206Z,6.33
2019-05-22T21:02:14.784Z,8.10
2019-05-22T21:04:45.776Z,7.63
2019-05-22T21:07:17.964Z,7.03
2019-05-22T21:09:47.235Z,5.30
2019-05-22T21:12:17.790Z,7.83
2019-05-22T21:14:47.991Z,8.27
2019-05-22T21:17:17.785Z,4.07
2019-05-22T21:19:48.549Z,6.67
2019-05-22T21:22:21.271Z,5.63
2019-05-22T21:24:50.841Z,5.93
2019-05-22T21:27:20.561Z,6.17
2019-05-22T21:29:49.812Z,6.90
2019-05-22T21:32:20.192Z,7.30
2019-05-22T21:34:49.768Z,5.33
2019-05-22T21:37:19.716Z,8.53
2019-05-22T21:39:49.889Z,7.20
2019-05-22T21:42:19.183Z,9.07
2019-05-22T21:44:48.464Z,6.33
2019-05-22T21:47:18.660Z,8.13
2019-05-22T21:49:49.691Z,5.60
2019-05-22T21:52:18.923Z,5.03
2019-05-22T21:54:48.474Z,4.23
2019-05-22T21:57:18.545Z,5.13
2019-05-22T21:59:48.208Z,4.57
2019-05-22T22:02:25.217Z,11.10
2019-05-22T22:04:55.152Z,5.77
2019-05-22T22:07:24.652Z,4.37
2019-05-22T22:09:55.068Z,6.47
2019-05-22T22:12:24.936Z,4.97
2019-05-22T22:14:54.320Z,5.50
2019-05-22T22:17:25.268Z,7.13
2019-05-22T22:19:54.647Z,6.10
2019-05-22T22:22:31.467Z,5.07
2019-05-22T22:25:00.843Z,6.33
2019-05-22T22:27:30.446Z,8.60
2019-05-22T22:30:00.221Z,4.90
2019-05-22T22:32:31.358Z,5.83
2019-05-22T22:35:01.149Z,4.37
2019-05-22T22:37:31.239Z,6.13
2019-05-22T22:40:02.438Z,6.20
2019-05-22T22:42:36.854Z,5.33
2019-05-22T22:45:07.649Z,5.33
2019-05-22T22:47:42.708Z,6.37
2019-05-22T22:50:13.090Z,5.87
2019-05-22T22:52:45.172Z,6.33
2019-05-22T22:55:16.526Z,6.47
2019-05-22T22:57:47.348Z,7.87
2019-05-22T23:00:22.938Z,8.20
2019-05-22T23:02:53.011Z,8.17
2019-05-22T23:05:22.841Z,8.10
2019-05-22T23:07:53.551Z,6.03
2019-05-22T23:10:24.006Z,7.23
2019-05-22T23:12:54.848Z,6.87
2019-05-22T23:15:25.648Z,4.77
2019-05-22T23:17:55.592Z,7.67
2019-05-22T23:20:23.168Z,5.87
2019-05-22T23:22:51.706Z,7.73
2019-05-22T23:25:21.347Z,6.87
2019-05-22T23:27:50.692Z,5.47
2019-05-22T23:30:20.767Z,6.67
2019-05-22T23:32:51.181Z,6.23
2019-05-22T23:35:22.703Z,6.50
2019-05-22T23:37:52.416Z,9.40
2019-05-22T23:40:27.481Z,6.17
2019-05-22T23:42:58.923Z,6.10
2019-05-22T23:45:28.187Z,9.43
2019-05-22T23:48:11.968Z,10.00
2019-05-22T23:50:41.821Z,6.77
2019-05-22T23:53:12.393Z,8.33
2019-05-22T23:55:43.076Z,8.33
2019-05-22T23:58:14.161Z,8.60
